SEGU/GYE METAR and TAF weather

Enter ICAO airport designator
Station Type Date Time Source
SEGU METAR 2019/07/20 05:00 UTC NOAA

SEGU 200500Z 21014KT 9999 BKN023 SCT100 22/19 Q1010 NOSIG RMK A2983


Station Type Date Time Source
SEGU Decoded METAR 2019/07/20 05:00 UTC NOAA

Guayaquil / Simon Bolivar, Ecuador (SEGU) 02-09S 079-53W 9M
Jul 20, 2019 - 01:00 AM EDT / 2019.07.20 0500 UTC
Wind: from the SSW (210 degrees) at 16 MPH (14 KT):0
Visibility: greater than 7 mile(s):0
Sky conditions: mostly cloudy
Temperature: 71 F (22 C)
Dew Point: 66 F (19 C)
Relative Humidity: 83%
Pressure (altimeter): 29.83 in. Hg (1010 hPa)
ob: SEGU 200500Z 21014KT 9999 BKN023 SCT100 22/19 Q1010 NOSIG RMK A2983
cycle: 5

Station Type Date Time Source
SEGU TAF 2019/07/20 06:42 UTC NOAA

TAF SEGU 200430Z 2006/2106 23007KT 9999 BKN023 BKN100
FM201400 16005KT 9999 SCT026 SCT100
FM210000 22012KT CAVOK TX30/2020Z TN22/2011Z

Example: see airport list